Time;durP1;ratioP1;P1;durP2;ratioP2;P2;SDS_P1;SDS_P2;PMS_P1;PMS_P2;Temp;Humidity;BMP_temperature;BMP_pressure;BME280_temperature;BME280_humidity;BME280_pressure;Samples;Min_cycle;Max_cycle;Signal;HPM_P1;HPM_P2
2022/08/30 00:03:16;;;;;;;9.73;5.88;;;19.90;49.20;;;;;;4992105;28;20179;-43
2022/08/30 00:05:42;;;;;;;8.40;5.72;;;19.80;49.10;;;;;;4991553;28;20219;-43
2022/08/30 00:08:08;;;;;;;11.77;6.18;;;19.80;49.10;;;;;;4991845;28;20250;-43
2022/08/30 00:10:35;;;;;;;6.15;4.68;;;19.80;49.00;;;;;;4991754;28;20179;-43
2022/08/30 00:13:02;;;;;;;6.30;4.90;;;19.80;49.10;;;;;;4991609;28;20516;-43
2022/08/30 00:15:28;;;;;;;5.53;5.03;;;19.80;49.10;;;;;;4991415;28;20215;-43
2022/08/30 00:17:54;;;;;;;6.03;5.25;;;19.70;49.00;;;;;;4991439;28;20625;-43
2022/08/30 00:20:24;;;;;;;5.70;4.50;;;19.80;48.90;;;;;;4991570;28;20174;-43
2022/08/30 00:22:50;;;;;;;13.45;4.75;;;19.80;48.90;;;;;;4991510;28;20766;-43
2022/08/30 00:25:17;;;;;;;7.63;4.80;;;19.80;49.10;;;;;;4991674;28;20191;-43
2022/08/30 00:27:44;;;;;;;5.27;4.77;;;19.80;49.10;;;;;;4991307;28;20554;-43
2022/08/30 00:30:11;;;;;;;6.25;5.38;;;19.70;49.00;;;;;;4991368;28;20767;-43
2022/08/30 00:32:37;;;;;;;7.40;5.75;;;19.70;49.00;;;;;;4991284;28;20178;-43
2022/08/30 00:35:05;;;;;;;7.40;4.87;;;19.70;48.80;;;;;;4991196;28;20183;-43
2022/08/30 00:37:31;;;;;;;8.80;4.90;;;19.60;48.50;;;;;;4991431;28;20181;-43
2022/08/30 00:39:57;;;;;;;7.53;5.40;;;19.50;48.60;;;;;;4991337;28;20183;-43
2022/08/30 00:42:23;;;;;;;9.60;5.60;;;19.50;49.00;;;;;;4990296;28;20200;-43
2022/08/30 00:44:50;;;;;;;6.60;4.90;;;19.50;49.10;;;;;;4991423;28;20724;-42
2022/08/30 00:47:15;;;;;;;5.82;4.90;;;19.50;49.10;;;;;;4991280;28;20209;-42
2022/08/30 00:49:44;;;;;;;5.90;4.93;;;19.50;49.10;;;;;;4991153;28;20230;-43
2022/08/30 00:52:11;;;;;;;7.43;5.53;;;19.50;49.20;;;;;;4990994;28;20447;-43
2022/08/30 00:54:40;;;;;;;5.97;5.38;;;19.50;49.00;;;;;;4990958;28;20626;-43
2022/08/30 00:57:06;;;;;;;6.28;4.97;;;19.50;49.10;;;;;;4990883;28;20211;-43
2022/08/30 00:59:32;;;;;;;9.85;5.20;;;19.40;49.00;;;;;;4991075;28;20670;-43
2022/08/30 01:02:01;;;;;;;10.45;5.03;;;19.40;49.00;;;;;;4990926;28;20168;-43
2022/08/30 01:04:28;;;;;;;6.05;5.07;;;19.40;49.00;;;;;;4991162;28;20175;-43
2022/08/30 01:06:54;;;;;;;6.65;5.03;;;19.40;48.90;;;;;;4991380;28;20578;-42
2022/08/30 01:09:20;;;;;;;11.30;5.83;;;19.30;49.00;;;;;;4990825;28;20176;-43
2022/08/30 01:11:47;;;;;;;6.28;4.72;;;19.30;49.10;;;;;;4990793;28;20706;-43
2022/08/30 01:14:14;;;;;;;6.83;5.63;;;19.30;49.10;;;;;;4990783;28;20262;-42
2022/08/30 01:16:42;;;;;;;12.32;5.88;;;19.20;49.00;;;;;;4990631;28;20211;-42
2022/08/30 01:19:37;;;;;;;9.43;6.43;;;19.20;49.10;;;;;;4990934;28;20179;-42
2022/08/30 01:22:19;;;;;;;5.35;4.70;;;19.20;49.20;;;;;;4990690;28;20175;-42
2022/08/30 01:24:46;;;;;;;5.70;5.10;;;19.20;49.10;;;;;;4990551;28;20181;-42
2022/08/30 01:27:14;;;;;;;9.60;6.90;;;19.10;49.00;;;;;;4990404;28;20183;-42
2022/08/30 01:29:43;;;;;;;15.48;5.53;;;19.10;49.00;;;;;;4990461;28;20210;-42
2022/08/30 01:32:20;;;;;;;9.63;6.35;;;19.10;49.10;;;;;;4990291;28;20553;-42
2022/08/30 01:34:49;;;;;;;6.60;5.35;;;19.10;49.30;;;;;;4989167;28;20186;-42
2022/08/30 01:37:23;;;;;;;5.67;5.17;;;19.10;49.20;;;;;;4990239;28;20757;-42
2022/08/30 01:39:49;;;;;;;5.72;5.13;;;19.00;49.20;;;;;;4990701;28;20390;-42
2022/08/30 01:42:17;;;;;;;8.68;5.18;;;19.00;49.10;;;;;;4990332;28;20250;-42
2022/08/30 01:44:46;;;;;;;6.57;4.85;;;19.00;49.20;;;;;;4990106;28;20187;-42
2022/08/30 01:47:12;;;;;;;6.55;5.78;;;19.00;49.20;;;;;;4990271;28;20183;-42
2022/08/30 01:49:39;;;;;;;9.95;4.53;;;19.00;49.20;;;;;;4990389;28;20174;-42
2022/08/30 01:52:06;;;;;;;7.50;4.43;;;19.00;49.00;;;;;;4990470;28;20536;-42
2022/08/30 01:54:34;;;;;;;7.72;5.60;;;18.90;49.00;;;;;;4990049;28;20228;-42
2022/08/30 01:57:01;;;;;;;8.18;4.97;;;18.90;49.10;;;;;;4989913;28;20256;-42
2022/08/30 01:59:27;;;;;;;10.02;6.38;;;18.80;49.10;;;;;;4990434;28;20207;-42
2022/08/30 02:01:53;;;;;;;8.55;6.10;;;18.80;49.00;;;;;;4990379;28;20225;-42
2022/08/30 02:04:19;;;;;;;7.20;4.78;;;18.80;49.10;;;;;;4990079;28;20172;-42
2022/08/30 02:06:47;;;;;;;5.37;4.47;;;18.80;49.00;;;;;;4989805;28;20244;-42
2022/08/30 02:09:14;;;;;;;6.20;5.28;;;18.70;49.10;;;;;;4990145;28;20418;-42
2022/08/30 02:11:40;;;;;;;6.32;4.95;;;18.80;49.00;;;;;;4988760;28;20259;-42
2022/08/30 02:14:06;;;;;;;10.40;5.53;;;18.70;49.00;;;;;;4989936;28;20313;-42
2022/08/30 02:16:32;;;;;;;6.65;5.95;;;18.70;48.90;;;;;;4989834;28;20211;-42
2022/08/30 02:18:58;;;;;;;5.80;5.20;;;18.60;48.80;;;;;;4990208;28;20643;-42
2022/08/30 02:21:26;;;;;;;7.43;5.07;;;18.60;49.00;;;;;;4990065;28;20213;-42
2022/08/30 02:23:52;;;;;;;10.65;5.60;;;18.60;49.00;;;;;;4990135;28;20407;-42
2022/08/30 02:26:18;;;;;;;8.80;4.85;;;18.60;48.80;;;;;;4988526;28;20693;-42
2022/08/30 02:28:45;;;;;;;10.13;5.18;;;18.60;49.20;;;;;;4989827;28;20175;-42
2022/08/30 02:31:11;;;;;;;5.32;4.78;;;18.60;49.20;;;;;;4989785;28;20176;-42
2022/08/30 02:33:37;;;;;;;9.00;5.53;;;18.60;49.40;;;;;;4989878;28;20176;-42
2022/08/30 02:36:05;;;;;;;9.27;4.88;;;18.60;49.30;;;;;;4989485;28;20211;-42
2022/08/30 02:38:31;;;;;;;6.40;5.65;;;18.70;49.50;;;;;;4989788;28;20164;-42
2022/08/30 02:40:57;;;;;;;7.38;4.63;;;18.60;49.40;;;;;;4990033;28;20176;-42
2022/08/30 02:43:23;;;;;;;9.40;5.15;;;18.60;49.40;;;;;;4989749;28;20175;-42
2022/08/30 02:45:49;;;;;;;7.40;5.25;;;18.60;49.40;;;;;;4989415;28;20183;-42
2022/08/30 02:48:15;;;;;;;8.50;4.67;;;18.60;49.40;;;;;;4989709;28;20527;-42
2022/08/30 02:50:42;;;;;;;9.37;5.00;;;18.60;49.40;;;;;;4989613;28;20453;-42
2022/08/30 02:53:09;;;;;;;5.32;4.82;;;18.70;49.40;;;;;;4989826;28;20928;-42
2022/08/30 02:55:35;;;;;;;5.63;4.40;;;18.60;49.60;;;;;;4989787;28;20690;-42
2022/08/30 02:58:01;;;;;;;7.23;4.70;;;18.60;49.60;;;;;;4989975;28;20181;-42
2022/08/30 03:00:27;;;;;;;7.30;5.35;;;18.70;49.80;;;;;;4989985;28;20413;-42
2022/08/30 03:02:53;;;;;;;8.87;6.10;;;18.70;50.60;;;;;;4989525;28;20179;-42
2022/08/30 03:05:19;;;;;;;9.05;5.05;;;18.70;49.80;;;;;;4989817;28;20446;-42
2022/08/30 03:07:46;;;;;;;11.23;5.33;;;18.70;49.80;;;;;;4992669;28;20168;-42
2022/08/30 03:10:13;;;;;;;6.45;4.88;;;18.70;49.70;;;;;;4992612;28;20399;-42
2022/08/30 03:12:40;;;;;;;7.05;5.10;;;18.60;49.70;;;;;;4992761;28;20168;-42
2022/08/30 03:15:08;;;;;;;6.22;5.13;;;18.70;49.70;;;;;;4992579;28;20598;-42
2022/08/30 03:17:34;;;;;;;5.82;5.30;;;18.60;49.70;;;;;;4992508;28;20207;-41
2022/08/30 03:20:00;;;;;;;6.53;5.00;;;18.60;49.70;;;;;;4992902;28;20585;-42
2022/08/30 03:22:27;;;;;;;8.55;5.75;;;18.60;49.70;;;;;;4991431;28;20171;-42
2022/08/30 03:24:58;;;;;;;6.68;4.70;;;18.60;49.80;;;;;;4992298;28;20179;-42
2022/08/30 03:27:25;;;;;;;13.07;5.80;;;18.60;49.80;;;;;;4992306;28;20191;-42
2022/08/30 03:29:51;;;;;;;7.35;4.78;;;18.60;49.90;;;;;;4992536;28;20535;-42
2022/08/30 03:32:17;;;;;;;6.00;5.40;;;18.60;49.80;;;;;;4992726;28;20176;-42
2022/08/30 03:34:43;;;;;;;6.53;4.00;;;18.60;49.80;;;;;;4992312;28;20411;-42
2022/08/30 03:37:09;;;;;;;7.90;5.22;;;18.60;49.80;;;;;;4992141;28;20211;-42
2022/08/30 03:39:35;;;;;;;6.00;5.03;;;18.60;49.90;;;;;;4992303;28;20578;-42
2022/08/30 03:42:01;;;;;;;9.70;5.13;;;18.70;50.00;;;;;;4992457;28;20179;-42
2022/08/30 03:44:27;;;;;;;9.10;4.80;;;18.60;49.70;;;;;;4992240;28;20247;-42
2022/08/30 03:46:53;;;;;;;7.30;4.20;;;18.60;49.60;;;;;;4991890;28;20487;-42
2022/08/30 03:49:19;;;;;;;6.90;5.30;;;18.60;49.60;;;;;;4992375;28;20501;-42
2022/08/30 03:51:46;;;;;;;5.57;4.25;;;18.60;49.60;;;;;;4992037;28;20411;-42
2022/08/30 03:54:12;;;;;;;5.90;5.03;;;18.60;49.60;;;;;;4992056;28;20183;-42
2022/08/30 03:56:38;;;;;;;6.32;4.93;;;18.50;49.70;;;;;;4991716;28;20238;-42
2022/08/30 03:59:05;;;;;;;5.67;4.50;;;18.50;50.00;;;;;;4992084;28;20203;-42
2022/08/30 04:01:30;;;;;;;6.72;5.90;;;18.50;49.90;;;;;;4991960;28;20430;-42
2022/08/30 04:03:56;;;;;;;5.77;4.80;;;18.50;50.00;;;;;;4991837;28;20690;-42
2022/08/30 04:06:23;;;;;;;10.53;5.43;;;18.50;50.00;;;;;;4991463;28;20215;-42
2022/08/30 04:08:52;;;;;;;5.75;5.15;;;18.50;49.90;;;;;;4992067;28;20186;-42
2022/08/30 04:11:19;;;;;;;6.07;5.15;;;18.50;50.00;;;;;;4991982;28;20213;-42
2022/08/30 04:13:48;;;;;;;9.73;5.30;;;18.40;49.80;;;;;;4991988;28;20579;-42
2022/08/30 04:16:14;;;;;;;5.60;4.35;;;18.40;49.80;;;;;;4991703;28;20215;-42
2022/08/30 04:18:39;;;;;;;6.17;5.13;;;18.40;49.80;;;;;;4991871;28;20654;-42
2022/08/30 04:21:06;;;;;;;6.33;5.03;;;18.40;49.60;;;;;;4991663;28;20463;-42
2022/08/30 04:23:32;;;;;;;7.13;5.43;;;18.40;49.60;;;;;;4991796;28;20171;-42
2022/08/30 04:25:58;;;;;;;6.53;4.53;;;18.40;49.70;;;;;;4991711;28;20204;-43
2022/08/30 04:28:24;;;;;;;8.00;4.87;;;18.30;49.90;;;;;;4991779;28;20415;-42
2022/08/30 04:30:50;;;;;;;8.18;5.18;;;18.30;49.90;;;;;;4991625;28;20411;-42
2022/08/30 04:33:16;;;;;;;6.00;5.23;;;18.30;49.90;;;;;;4991470;28;20661;-42
2022/08/30 04:35:45;;;;;;;6.10;5.50;;;18.40;50.00;;;;;;4991401;28;20254;-42
2022/08/30 04:38:12;;;;;;;9.52;5.38;;;18.30;49.80;;;;;;4991540;28;20520;-42
2022/08/30 04:40:44;;;;;;;9.02;4.18;;;18.30;49.90;;;;;;4991465;28;20172;-42
2022/08/30 04:43:11;;;;;;;5.25;4.75;;;18.30;49.90;;;;;;4991418;28;20688;-42
2022/08/30 04:45:41;;;;;;;10.13;4.60;;;18.30;50.00;;;;;;4990940;28;20203;-42
2022/08/30 04:48:07;;;;;;;5.80;4.68;;;18.30;50.00;;;;;;4991096;28;20259;-42
2022/08/30 04:50:33;;;;;;;12.23;5.30;;;18.30;50.80;;;;;;4991161;28;20176;-42
2022/08/30 04:52:59;;;;;;;6.55;5.55;;;18.30;50.00;;;;;;4991126;28;20182;-42
2022/08/30 04:55:25;;;;;;;7.20;5.40;;;18.40;50.00;;;;;;4990810;28;20207;-42
2022/08/30 04:57:51;;;;;;;12.07;6.20;;;18.50;50.20;;;;;;4991215;28;20407;-42
2022/08/30 05:00:21;;;;;;;6.07;5.28;;;18.50;50.40;;;;;;4991113;28;20456;-42
2022/08/30 05:02:47;;;;;;;5.60;4.40;;;18.50;50.50;;;;;;4990938;28;20215;-42
2022/08/30 05:07:58;;;;;;;9.07;6.03;;;18.60;50.50;;;;;;4991111;28;20182;-42
2022/08/30 05:10:26;;;;;;;7.97;6.20;;;18.60;50.60;;;;;;4990778;28;20270;-42
2022/08/30 05:12:53;;;;;;;6.47;4.93;;;18.60;50.60;;;;;;4990923;28;20714;-42
2022/08/30 05:15:19;;;;;;;5.65;4.70;;;18.70;50.70;;;;;;4990763;28;20279;-42
2022/08/30 05:17:45;;;;;;;8.80;6.20;;;18.70;50.70;;;;;;4990740;28;20171;-42
2022/08/30 05:20:11;;;;;;;5.87;5.27;;;18.80;50.50;;;;;;4990715;28;20170;-42
2022/08/30 05:22:40;;;;;;;8.65;4.75;;;18.80;50.60;;;;;;4990732;28;20178;-42
2022/08/30 05:25:07;;;;;;;6.43;5.10;;;18.80;50.50;;;;;;4990506;28;20286;-42
2022/08/30 05:27:34;;;;;;;6.95;4.93;;;18.90;50.60;;;;;;4989212;28;20210;-42
2022/08/30 05:30:00;;;;;;;8.20;5.50;;;18.90;50.50;;;;;;4990258;28;20689;-42
2022/08/30 05:32:26;;;;;;;8.27;5.83;;;19.00;50.50;;;;;;4990658;28;20207;-42
2022/08/30 05:34:52;;;;;;;7.27;4.77;;;18.90;50.60;;;;;;4990531;28;20239;-42
2022/08/30 05:37:17;;;;;;;7.07;6.20;;;19.00;50.60;;;;;;4990252;28;20593;-42
2022/08/30 05:39:43;;;;;;;5.93;5.33;;;19.00;50.60;;;;;;4990348;28;20275;-42
2022/08/30 05:42:09;;;;;;;5.97;4.97;;;19.10;50.70;;;;;;4989182;28;20175;-42
2022/08/30 05:44:35;;;;;;;10.03;6.07;;;19.10;50.70;;;;;;4990392;28;20183;-42
2022/08/30 05:47:00;;;;;;;7.93;5.47;;;19.20;50.70;;;;;;4990429;28;20199;-42
2022/08/30 05:49:26;;;;;;;7.90;6.37;;;19.20;50.80;;;;;;4990365;28;20414;-42
2022/08/30 05:51:52;;;;;;;6.90;5.87;;;19.30;50.90;;;;;;4990225;28;20258;-42
2022/08/30 05:54:18;;;;;;;7.00;4.87;;;19.40;50.70;;;;;;4990234;28;20175;-42
2022/08/30 05:56:45;;;;;;;6.60;5.60;;;19.40;50.60;;;;;;4990072;28;20204;-43
2022/08/30 05:59:11;;;;;;;6.30;5.70;;;19.50;50.60;;;;;;4990607;28;20262;-42
2022/08/30 06:01:40;;;;;;;7.13;5.15;;;19.60;50.40;;;;;;4989079;28;20176;-42
2022/08/30 06:04:08;;;;;;;6.63;5.93;;;19.70;50.40;;;;;;4990063;28;20167;-42
2022/08/30 06:06:37;;;;;;;5.93;5.28;;;19.70;50.10;;;;;;4989864;28;20218;-42
2022/08/30 06:09:05;;;;;;;6.25;5.50;;;19.80;50.00;;;;;;4990017;28;20252;-42
2022/08/30 06:11:30;;;;;;;6.97;4.97;;;19.90;50.00;;;;;;4989920;28;20266;-43
2022/08/30 06:13:56;;;;;;;6.80;5.33;;;20.00;50.30;;;;;;4990066;28;20201;-42
2022/08/30 06:16:25;;;;;;;6.32;5.40;;;20.00;50.10;;;;;;4990423;28;20207;-43
2022/08/30 06:18:51;;;;;;;6.90;5.75;;;20.10;50.10;;;;;;4990424;28;20266;-43
2022/08/30 06:21:22;;;;;;;11.25;6.38;;;20.10;49.40;;;;;;4989854;28;20182;-42
2022/08/30 06:23:48;;;;;;;8.07;6.47;;;20.20;49.30;;;;;;4989874;28;20184;-43
2022/08/30 06:26:14;;;;;;;6.13;5.37;;;20.20;49.40;;;;;;4989790;28;20214;-43
2022/08/30 06:28:40;;;;;;;6.28;5.10;;;20.30;49.50;;;;;;4990060;28;20406;-42
2022/08/30 06:31:07;;;;;;;6.70;5.30;;;20.40;49.70;;;;;;4990027;28;20183;-42
2022/08/30 06:33:33;;;;;;;8.07;6.50;;;20.50;49.50;;;;;;4989718;28;20932;-42
2022/08/30 06:36:07;;;;;;;6.53;5.78;;;20.60;49.40;;;;;;4989490;28;20211;-42
2022/08/30 06:38:33;;;;;;;7.35;5.90;;;20.70;49.30;;;;;;4989706;28;20623;-42
2022/08/30 06:40:59;;;;;;;6.60;5.40;;;20.80;49.30;;;;;;4991374;28;20232;-42
2022/08/30 06:43:25;;;;;;;10.37;6.80;;;20.90;48.90;;;;;;4993472;28;20934;-43
2022/08/30 06:45:51;;;;;;;7.67;5.77;;;20.90;48.60;;;;;;4992876;28;20460;-43
2022/08/30 06:48:17;;;;;;;9.33;5.87;;;20.90;48.30;;;;;;4993274;28;20183;-43
2022/08/30 06:50:43;;;;;;;6.27;5.57;;;20.90;48.60;;;;;;4993295;28;20414;-43
2022/08/30 06:53:09;;;;;;;7.97;5.90;;;20.90;48.70;;;;;;4992888;28;20256;-42
2022/08/30 06:55:36;;;;;;;8.70;5.70;;;21.00;48.70;;;;;;4992766;28;20480;-43
2022/08/30 06:58:02;;;;;;;7.63;5.77;;;21.00;48.30;;;;;;4992783;28;20509;-42
2022/08/30 07:00:29;;;;;;;10.40;5.60;;;21.10;48.30;;;;;;4992976;28;20426;-43
2022/08/30 07:02:55;;;;;;;6.33;5.53;;;21.10;48.60;;;;;;4993146;28;20175;-43
2022/08/30 07:05:22;;;;;;;6.40;5.70;;;21.20;48.60;;;;;;4992589;28;20521;-43
2022/08/30 07:07:49;;;;;;;6.20;5.20;;;21.30;48.90;;;;;;4991406;28;20655;-42
2022/08/30 07:10:15;;;;;;;5.83;5.23;;;21.40;48.40;;;;;;4992687;28;20456;-42
2022/08/30 07:12:41;;;;;;;5.40;4.90;;;21.40;48.00;;;;;;4992993;28;20410;-42
2022/08/30 07:15:08;;;;;;;7.43;5.73;;;21.50;48.30;;;;;;4991339;28;20444;-42
2022/08/30 07:20:20;;;;;;;8.30;5.90;;;21.70;48.10;;;;;;4992528;28;20417;-43
2022/08/30 07:22:47;;;;;;;6.90;5.10;;;21.80;48.50;;;;;;4992453;28;20419;-43
2022/08/30 07:25:14;;;;;;;6.23;5.63;;;21.90;48.40;;;;;;4992281;28;20474;-43
2022/08/30 07:27:41;;;;;;;5.90;4.77;;;22.00;47.90;;;;;;4992669;28;20438;-43
2022/08/30 07:30:07;;;;;;;12.10;5.37;;;22.00;47.00;;;;;;4992388;28;20407;-42
2022/08/30 07:32:33;;;;;;;6.20;5.27;;;22.00;46.30;;;;;;4992401;28;20498;-43
2022/08/30 07:34:59;;;;;;;8.13;6.00;;;22.00;47.00;;;;;;4992466;28;20462;-43
2022/08/30 07:37:25;;;;;;;7.23;6.30;;;22.20;47.70;;;;;;4992027;28;20698;-43
2022/08/30 07:39:51;;;;;;;6.20;5.40;;;22.30;47.10;;;;;;4992440;28;20407;-43
2022/08/30 07:42:17;;;;;;;6.13;5.43;;;22.40;47.00;;;;;;4992238;28;20261;-43
2022/08/30 07:44:43;;;;;;;8.73;6.20;;;22.50;47.00;;;;;;4991938;28;20816;-43
2022/08/30 07:47:09;;;;;;;6.03;5.43;;;22.60;47.50;;;;;;4992222;28;20178;-43
2022/08/30 07:49:36;;;;;;;7.00;6.07;;;22.70;47.60;;;;;;4992024;28;20403;-43
2022/08/30 07:52:03;;;;;;;7.97;5.53;;;22.70;46.50;;;;;;4991866;28;20402;-43
2022/08/30 07:54:29;;;;;;;7.40;6.10;;;22.80;47.00;;;;;;4991942;28;20409;-43
2022/08/30 07:56:55;;;;;;;9.93;7.03;;;23.00;47.60;;;;;;4991731;28;20538;-43
2022/08/30 07:59:22;;;;;;;6.97;6.10;;;23.20;47.90;;;;;;4991868;28;20171;-43
2022/08/30 08:01:48;;;;;;;7.83;5.60;;;23.30;47.50;;;;;;4991794;28;20712;-43
2022/08/30 08:04:14;;;;;;;7.13;5.67;;;23.40;47.00;;;;;;4991767;28;20406;-42
2022/08/30 08:06:39;;;;;;;7.60;5.90;;;23.50;45.90;;;;;;4991309;28;20455;-42
2022/08/30 08:09:06;;;;;;;6.07;5.43;;;23.50;46.00;;;;;;4991946;28;20179;-43
2022/08/30 08:11:33;;;;;;;6.60;5.00;;;23.70;46.80;;;;;;4991760;28;20250;-42
2022/08/30 08:14:00;;;;;;;6.50;5.60;;;23.70;46.40;;;;;;4991980;28;20415;-43
2022/08/30 08:16:28;;;;;;;8.37;5.07;;;23.90;46.70;;;;;;4991204;28;20470;-42
2022/08/30 08:18:55;;;;;;;6.90;6.17;;;24.00;46.60;;;;;;4991601;28;20838;-41
2022/08/30 08:21:23;;;;;;;6.20;5.60;;;24.10;46.60;;;;;;4991469;28;20949;-42
2022/08/30 08:23:49;;;;;;;6.20;5.53;;;24.20;46.30;;;;;;4991565;28;20415;-42
2022/08/30 08:26:15;;;;;;;6.90;5.37;;;24.30;45.90;;;;;;4991461;28;20422;-42
2022/08/30 08:28:43;;;;;;;6.93;5.10;;;24.30;44.70;;;;;;4991482;28;20926;-42
2022/08/30 08:31:22;;;;;;;6.00;4.93;;;24.40;44.20;;;;;;4991723;28;20498;-42
2022/08/30 08:33:48;;;;;;;8.70;5.33;;;24.40;43.80;;;;;;4991432;28;20501;-42
2022/08/30 08:36:14;;;;;;;7.83;5.63;;;24.30;42.70;;;;;;4990957;28;20566;-43
2022/08/30 08:38:40;;;;;;;7.90;5.00;;;24.40;44.40;;;;;;4991287;28;20167;-42
2022/08/30 08:41:16;;;;;;;7.20;5.10;;;24.50;45.20;;;;;;4991299;28;20418;-43
2022/08/30 08:43:42;;;;;;;7.23;5.90;;;24.60;44.40;;;;;;4991184;28;20410;-43
2022/08/30 08:46:43;;;;;;;5.53;5.00;;;24.70;43.80;;;;;;4990894;28;21020;-43
2022/08/30 08:49:09;;;;;;;6.53;4.57;;;24.80;43.10;;;;;;4991010;28;20425;-43
2022/08/30 08:54:55;;;;;;;5.70;5.10;;;24.80;43.70;;;;;;4991318;28;20206;-43
2022/08/30 08:57:21;;;;;;;6.40;5.00;;;25.00;44.30;;;;;;4990740;28;20946;-43
2022/08/30 08:59:47;;;;;;;5.53;4.10;;;25.10;44.10;;;;;;4991260;28;20805;-43
2022/08/30 09:02:27;;;;;;;5.70;4.90;;;25.10;40.30;;;;;;4990907;28;20409;-43
2022/08/30 09:05:00;;;;;;;5.63;5.13;;;25.20;42.20;;;;;;4990174;28;20175;-43
2022/08/30 09:07:31;;;;;;;5.93;5.27;;;25.20;41.60;;;;;;4990655;28;20460;-43
2022/08/30 09:09:59;;;;;;;6.63;5.93;;;25.30;42.10;;;;;;4990851;28;20430;-45
2022/08/30 09:12:26;;;;;;;5.77;5.10;;;25.30;41.30;;;;;;4991007;28;20939;-44
2022/08/30 09:15:10;;;;;;;5.53;4.83;;;25.40;42.10;;;;;;4990595;28;20486;-43
2022/08/30 09:17:57;;;;;;;6.63;4.83;;;25.50;40.40;;;;;;4990671;28;20454;-44
2022/08/30 09:20:46;;;;;;;5.37;4.70;;;25.60;41.90;;;;;;4990585;28;20490;-45
2022/08/30 09:23:14;;;;;;;6.00;5.40;;;25.70;42.10;;;;;;4990547;28;20774;-45
2022/08/30 09:26:02;;;;;;;6.87;4.90;;;25.80;41.80;;;;;;4990507;28;20422;-44
2022/08/30 09:28:48;;;;;;;4.70;4.20;;;26.00;42.00;;;;;;4990563;28;20400;-45
2022/08/30 09:31:27;;;;;;;6.47;4.90;;;26.00;41.70;;;;;;4990440;28;20403;-44
2022/08/30 09:33:54;;;;;;;5.70;4.60;;;26.00;41.50;;;;;;4990419;28;20774;-46
2022/08/30 09:36:26;;;;;;;6.50;5.77;;;26.00;41.40;;;;;;4989953;28;21016;-44
2022/08/30 09:39:04;;;;;;;6.37;5.77;;;26.00;41.50;;;;;;4990497;28;20411;-45
2022/08/30 09:41:42;;;;;;;6.03;5.40;;;26.00;41.50;;;;;;4990347;28;20438;-43
2022/08/30 09:44:15;;;;;;;5.37;4.87;;;26.00;41.70;;;;;;4990212;28;20421;-45
2022/08/30 09:46:54;;;;;;;6.93;5.23;;;26.10;42.10;;;;;;4989973;28;20438;-44
2022/08/30 09:49:38;;;;;;;6.23;5.30;;;26.30;42.60;;;;;;4990206;28;20406;-45
2022/08/30 09:52:21;;;;;;;5.57;4.20;;;26.40;42.00;;;;;;4990246;28;20403;-44
2022/08/30 09:55:13;;;;;;;9.97;5.90;;;26.40;40.90;;;;;;4990088;28;20493;-44
2022/08/30 09:57:41;;;;;;;6.00;4.97;;;26.30;40.80;;;;;;4989961;28;20454;-43
2022/08/30 10:00:16;;;;;;;14.53;5.37;;;26.30;41.20;;;;;;4990101;28;20463;-43
2022/08/30 10:03:14;;;;;;;5.70;5.03;;;26.20;41.60;;;;;;4990146;28;20395;-43
2022/08/30 10:06:04;;;;;;;6.17;4.80;;;26.10;41.10;;;;;;4991982;28;20493;-43
2022/08/30 10:08:56;;;;;;;4.67;3.70;;;26.00;41.00;;;;;;4989981;28;20409;-43
2022/08/30 10:11:22;;;;;;;5.10;4.60;;;25.90;41.20;;;;;;4989239;28;20407;-42
2022/08/30 10:14:22;;;;;;;5.33;4.60;;;25.80;40.50;;;;;;4990290;28;20414;-43
2022/08/30 10:16:53;;;;;;;5.40;4.07;;;25.90;40.90;;;;;;4989626;28;20989;-43
2022/08/30 10:19:31;;;;;;;6.00;4.50;;;26.00;40.80;;;;;;4989851;28;20412;-43
2022/08/30 10:22:12;;;;;;;4.60;3.90;;;26.20;40.50;;;;;;4990304;28;20414;-44
2022/08/30 10:24:48;;;;;;;3.83;3.43;;;26.30;40.20;;;;;;4990099;28;20501;-44
2022/08/30 10:27:23;;;;;;;5.53;3.40;;;26.50;38.40;;;;;;4990052;28;20770;-43
2022/08/30 10:29:58;;;;;;;3.87;3.33;;;26.60;39.60;;;;;;4990025;28;20417;-44
2022/08/30 10:32:45;;;;;;;5.43;3.43;;;26.80;38.90;;;;;;4990325;28;20402;-44
2022/08/30 10:35:18;;;;;;;3.83;3.47;;;26.90;38.80;;;;;;4989828;28;20524;-44
2022/08/30 10:38:05;;;;;;;5.00;3.40;;;27.10;39.00;;;;;;4989745;28;20466;-44
2022/08/30 10:43:49;;;;;;;3.80;2.97;;;27.40;38.30;;;;;;4990123;28;20842;-44
2022/08/30 10:46:40;;;;;;;4.33;3.60;;;27.50;37.50;;;;;;4989701;28;20434;-44
2022/08/30 10:49:13;;;;;;;4.60;3.70;;;27.60;35.50;;;;;;4989710;28;20893;-44
2022/08/30 10:52:16;;;;;;;3.50;3.00;;;27.80;36.90;;;;;;4989790;28;20426;-44
2022/08/30 10:54:46;;;;;;;5.33;3.47;;;28.00;37.40;;;;;;4989563;28;20434;-43
2022/08/30 10:57:12;;;;;;;8.90;7.03;;;28.10;36.70;;;;;;4989474;28;20480;-44
2022/08/30 10:59:44;;;;;;;6.03;4.77;;;28.20;37.00;;;;;;4989701;28;20980;-44
2022/08/30 11:03:00;;;;;;;4.83;3.27;;;28.20;36.30;;;;;;4990012;28;20156;-44
2022/08/30 11:06:07;;;;;;;2.90;2.60;;;28.10;35.90;;;;;;4981273;28;20469;-44
2022/08/30 11:08:43;;;;;;;3.83;2.87;;;28.00;35.60;;;;;;4995984;28;20819;-43
2022/08/30 11:11:55;;;;;;;7.20;2.70;;;27.80;36.00;;;;;;4989279;28;20885;-43
2022/08/30 11:14:22;;;;;;;3.10;2.80;;;27.60;35.60;;;;;;4989536;28;20387;-43
2022/08/30 11:16:51;;;;;;;3.20;2.90;;;27.40;35.80;;;;;;4988740;28;20465;-43
2022/08/30 11:19:25;;;;;;;6.00;3.43;;;27.40;35.70;;;;;;4989071;28;20809;-43
2022/08/30 11:22:07;;;;;;;6.47;2.43;;;27.30;36.00;;;;;;4987979;28;20395;-43
2022/08/30 11:25:07;;;;;;;4.07;2.83;;;27.30;36.40;;;;;;4989296;28;20406;-44
2022/08/30 11:27:55;;;;;;;3.87;3.10;;;27.20;36.20;;;;;;4991455;28;20414;-43
2022/08/30 11:30:24;;;;;;;5.30;3.70;;;27.20;36.30;;;;;;4992295;28;20774;-43
2022/08/30 11:33:09;;;;;;;3.27;2.97;;;27.30;36.40;;;;;;4992417;28;20406;-44
2022/08/30 11:35:40;;;;;;;3.27;3.00;;;27.30;36.30;;;;;;4991964;28;20468;-43
2022/08/30 11:38:38;;;;;;;2.67;2.47;;;27.20;35.70;;;;;;4992246;28;20925;-44
2022/08/30 11:41:11;;;;;;;3.37;2.87;;;27.20;35.40;;;;;;4992186;28;20472;-43
2022/08/30 11:43:38;;;;;;;4.10;3.43;;;27.20;35.50;;;;;;4992273;28;20920;-44
2022/08/30 11:46:17;;;;;;;3.70;3.30;;;27.30;35.50;;;;;;4992213;28;20470;-44
2022/08/30 11:48:47;;;;;;;4.83;3.40;;;27.30;35.00;;;;;;4992202;28;20410;-44
2022/08/30 11:51:24;;;;;;;3.40;3.10;;;27.30;35.80;;;;;;4992155;28;20415;-45
2022/08/30 11:54:25;;;;;;;3.80;3.30;;;27.40;35.60;;;;;;4992197;28;20418;-44
2022/08/30 11:57:02;;;;;;;4.00;3.60;;;27.50;35.00;;;;;;4994379;28;20478;-44
2022/08/30 11:59:39;;;;;;;3.40;3.10;;;27.60;33.10;;;;;;4992263;28;20417;-44
2022/08/30 12:02:07;;;;;;;5.90;3.50;;;27.70;34.50;;;;;;4992284;28;20444;-44
2022/08/30 12:04:44;;;;;;;4.90;3.50;;;27.90;35.10;;;;;;4992009;28;20513;-44
2022/08/30 12:07:31;;;;;;;7.77;3.60;;;28.20;35.00;;;;;;4991811;28;20430;-45
2022/08/30 12:09:59;;;;;;;3.80;3.07;;;28.20;35.00;;;;;;4991963;28;20426;-44
2022/08/30 12:12:25;;;;;;;5.47;2.87;;;28.20;34.80;;;;;;4992254;28;20430;-44
2022/08/30 12:14:56;;;;;;;4.30;3.40;;;28.10;34.50;;;;;;4992354;28;20410;-44
2022/08/30 12:20:43;;;;;;;3.77;3.47;;;28.00;35.10;;;;;;4991813;28;20520;-44
2022/08/30 12:23:27;;;;;;;7.77;3.13;;;28.20;34.90;;;;;;4991984;28;20395;-44
2022/08/30 12:26:12;;;;;;;4.13;3.73;;;28.30;35.10;;;;;;4991692;28;20482;-44
2022/08/30 12:28:42;;;;;;;4.37;3.50;;;28.30;34.90;;;;;;4992137;28;20410;-44
2022/08/30 12:31:18;;;;;;;5.20;3.40;;;28.30;35.30;;;;;;4991720;28;20414;-44
2022/08/30 12:33:58;;;;;;;6.63;3.87;;;28.20;35.40;;;;;;4991902;28;20418;-44
2022/08/30 12:36:34;;;;;;;6.07;4.43;;;28.10;35.80;;;;;;4991321;28;20473;-44
2022/08/30 12:39:23;;;;;;;4.20;3.80;;;28.00;35.80;;;;;;4990290;28;20411;-44
2022/08/30 12:41:49;;;;;;;8.53;4.50;;;27.90;35.80;;;;;;4991566;28;20391;-44
2022/08/30 12:44:19;;;;;;;7.60;4.47;;;27.80;35.90;;;;;;4991774;28;20411;-44
2022/08/30 12:46:49;;;;;;;5.10;3.90;;;28.00;36.90;;;;;;4991204;28;20485;-44
2022/08/30 12:49:18;;;;;;;4.47;4.07;;;28.00;36.50;;;;;;4991452;28;20420;-44
2022/08/30 12:51:45;;;;;;;6.90;4.87;;;28.00;36.20;;;;;;4991352;28;20419;-44
2022/08/30 12:54:19;;;;;;;5.30;4.80;;;28.00;36.30;;;;;;4991373;28;20415;-44
2022/08/30 12:56:53;;;;;;;4.23;3.83;;;27.90;36.00;;;;;;4991235;28;21061;-44
2022/08/30 12:59:59;;;;;;;11.93;5.20;;;27.80;36.70;;;;;;4991433;28;20395;-44
2022/08/30 13:02:27;;;;;;;4.83;3.70;;;27.90;37.10;;;;;;5011544;28;20785;-44
2022/08/30 13:04:55;;;;;;;5.33;3.80;;;27.90;37.00;;;;;;5011393;28;20410;-44
2022/08/30 13:07:33;;;;;;;5.07;4.47;;;28.00;37.00;;;;;;5011037;28;20418;-45
2022/08/30 13:10:12;;;;;;;3.63;3.33;;;28.20;36.80;;;;;;5011490;28;20414;-44
2022/08/30 13:12:39;;;;;;;4.27;3.43;;;28.30;36.60;;;;;;5011240;28;20410;-44
2022/08/30 13:15:17;;;;;;;4.60;3.97;;;28.40;36.50;;;;;;5011172;28;20437;-44
2022/08/30 13:17:43;;;;;;;4.70;4.03;;;28.60;36.70;;;;;;4992961;22;20490;-44
2022/08/30 13:20:15;;;;;;;5.47;3.57;;;28.60;36.30;;;;;;4990685;28;20497;-44